sensor_id;sensor_type;location;lat;lon;timestamp;pressure;altitude;pressure_sealevel;temperature;humidity
23321;BME280;33376;51.306;4.752;2023-01-28T00:01:06;103083.66;;;4.03;nan
23321;BME280;33376;51.306;4.752;2023-01-28T00:03:32;103091.50;;;4.02;nan
23321;BME280;33376;51.306;4.752;2023-01-28T00:06:04;103088.97;;;4.12;nan
23321;BME280;33376;51.306;4.752;2023-01-28T00:08:29;103089.91;;;4.22;nan
23321;BME280;33376;51.306;4.752;2023-01-28T00:10:57;103095.13;;;4.16;nan
23321;BME280;33376;51.306;4.752;2023-01-28T00:13:22;103098.56;;;4.10;nan
23321;BME280;33376;51.306;4.752;2023-01-28T00:15:53;103101.19;;;4.10;nan
23321;BME280;33376;51.306;4.752;2023-01-28T00:18:18;103102.88;;;4.04;nan
23321;BME280;33376;51.306;4.752;2023-01-28T00:20:43;103101.13;;;4.03;nan
23321;BME280;33376;51.306;4.752;2023-01-28T00:23:09;103114.31;;;4.12;nan
23321;BME280;33376;51.306;4.752;2023-01-28T00:25:34;103122.16;;;4.06;nan
23321;BME280;33376;51.306;4.752;2023-01-28T00:27:59;103129.94;;;3.94;nan
23321;BME280;33376;51.306;4.752;2023-01-28T00:30:24;103121.22;;;3.98;nan
23321;BME280;33376;51.306;4.752;2023-01-28T00:32:50;103130.88;;;4.02;nan
23321;BME280;33376;51.306;4.752;2023-01-28T00:35:15;103131.72;;;4.01;nan
23321;BME280;33376;51.306;4.752;2023-01-28T00:37:40;103127.34;;;3.98;nan
23321;BME280;33376;51.306;4.752;2023-01-28T00:40:06;103146.53;;;3.93;nan
23321;BME280;33376;51.306;4.752;2023-01-28T00:42:33;103153.56;;;3.92;nan
23321;BME280;33376;51.306;4.752;2023-01-28T00:44:59;103146.47;;;3.84;nan
23321;BME280;33376;51.306;4.752;2023-01-28T00:47:24;103150.84;;;3.86;nan
23321;BME280;33376;51.306;4.752;2023-01-28T00:49:49;103150.94;;;3.95;nan
23321;BME280;33376;51.306;4.752;2023-01-28T00:52:14;103145.72;;;3.97;nan
23321;BME280;33376;51.306;4.752;2023-01-28T00:54:40;103146.53;;;3.94;nan
23321;BME280;33376;51.306;4.752;2023-01-28T00:57:05;103149.13;;;3.88;nan
23321;BME280;33376;51.306;4.752;2023-01-28T00:59:31;103148.31;;;3.94;nan
23321;BME280;33376;51.306;4.752;2023-01-28T01:01:57;103144.81;;;3.93;nan
23321;BME280;33376;51.306;4.752;2023-01-28T01:04:36;103157.94;;;3.96;nan
23321;BME280;33376;51.306;4.752;2023-01-28T01:07:01;103168.47;;;3.98;nan
23321;BME280;33376;51.306;4.752;2023-01-28T01:09:26;103158.81;;;3.95;nan
23321;BME280;33376;51.306;4.752;2023-01-28T01:11:51;103151.75;;;3.88;nan
23321;BME280;33376;51.306;4.752;2023-01-28T01:14:17;103162.19;;;3.84;nan
23321;BME280;33376;51.306;4.752;2023-01-28T01:16:42;103159.59;;;3.85;nan
23321;BME280;33376;51.306;4.752;2023-01-28T01:19:07;103153.47;;;3.86;nan
23321;BME280;33376;51.306;4.752;2023-01-28T01:21:33;103156.22;;;3.97;nan
23321;BME280;33376;51.306;4.752;2023-01-28T01:23:58;103164.78;;;3.79;nan
23321;BME280;33376;51.306;4.752;2023-01-28T01:26:23;103150.03;;;3.92;nan
23321;BME280;33376;51.306;4.752;2023-01-28T01:28:51;103151.75;;;3.90;nan
23321;BME280;33376;51.306;4.752;2023-01-28T01:31:17;103151.81;;;3.97;nan
23321;BME280;33376;51.306;4.752;2023-01-28T01:33:43;103152.59;;;3.86;nan
23321;BME280;33376;51.306;4.752;2023-01-28T01:36:09;103151.75;;;3.90;nan
23321;BME280;33376;51.306;4.752;2023-01-28T01:38:35;103144.78;;;3.90;nan
23321;BME280;33376;51.306;4.752;2023-01-28T01:41:01;103136.81;;;3.81;nan
23321;BME280;33376;51.306;4.752;2023-01-28T01:46:10;103147.38;;;3.89;nan
23321;BME280;33376;51.306;4.752;2023-01-28T01:48:36;103147.34;;;3.84;nan
23321;BME280;33376;51.306;4.752;2023-01-28T01:51:11;103146.41;;;3.78;nan
23321;BME280;33376;51.306;4.752;2023-01-28T01:53:40;103152.44;;;3.72;nan
23321;BME280;33376;51.306;4.752;2023-01-28T01:56:07;103150.72;;;3.73;nan
23321;BME280;33376;51.306;4.752;2023-01-28T01:58:35;103145.59;;;3.88;nan
23321;BME280;33376;51.306;4.752;2023-01-28T02:01:03;103135.78;;;3.69;nan
23321;BME280;33376;51.306;4.752;2023-01-28T02:03:36;103139.38;;;3.78;nan
23321;BME280;33376;51.306;4.752;2023-01-28T02:06:02;103140.22;;;3.71;nan
23321;BME280;33376;51.306;4.752;2023-01-28T02:08:27;103137.56;;;3.67;nan
23321;BME280;33376;51.306;4.752;2023-01-28T02:11:03;103138.44;;;3.72;nan
23321;BME280;33376;51.306;4.752;2023-01-28T02:13:31;103131.47;;;3.71;nan
23321;BME280;33376;51.306;4.752;2023-01-28T02:15:58;103134.06;;;3.69;nan
23321;BME280;33376;51.306;4.752;2023-01-28T02:18:24;103137.44;;;3.59;nan
23321;BME280;33376;51.306;4.752;2023-01-28T02:36:12;103145.41;;;3.67;nan
23321;BME280;33376;51.306;4.752;2023-01-28T02:38:41;103140.97;;;3.60;nan
23321;BME280;33376;51.306;4.752;2023-01-28T02:41:10;103154.84;;;3.53;nan
23321;BME280;33376;51.306;4.752;2023-01-28T02:43:39;103157.47;;;3.53;nan
23321;BME280;33376;51.306;4.752;2023-01-28T02:46:47;103153.13;;;3.53;nan
23321;BME280;33376;51.306;4.752;2023-01-28T02:49:13;103154.00;;;3.51;nan
23321;BME280;33376;51.306;4.752;2023-01-28T02:54:11;103161.81;;;3.46;nan
23321;BME280;33376;51.306;4.752;2023-01-28T02:56:44;103166.22;;;3.50;nan
23321;BME280;33376;51.306;4.752;2023-01-28T03:02:07;103187.13;;;3.44;nan
23321;BME280;33376;51.306;4.752;2023-01-28T03:04:36;103196.72;;;3.44;nan
23321;BME280;33376;51.306;4.752;2023-01-28T03:07:04;103203.00;;;3.58;nan
23321;BME280;33376;51.306;4.752;2023-01-28T03:09:31;103211.59;;;3.45;nan
23321;BME280;33376;51.306;4.752;2023-01-28T03:14:41;103215.94;;;3.40;nan
23321;BME280;33376;51.306;4.752;2023-01-28T03:20:32;103228.19;;;3.42;nan
23321;BME280;33376;51.306;4.752;2023-01-28T03:23:21;103233.41;;;3.42;nan
23321;BME280;33376;51.306;4.752;2023-01-28T03:26:05;103234.28;;;3.41;nan
23321;BME280;33376;51.306;4.752;2023-01-28T03:28:50;103228.09;;;3.35;nan
23321;BME280;33376;51.306;4.752;2023-01-28T03:31:35;103228.09;;;3.36;nan
23321;BME280;33376;51.306;4.752;2023-01-28T03:34:20;103227.22;;;3.36;nan
23321;BME280;33376;51.306;4.752;2023-01-28T03:37:04;103233.47;;;3.45;nan
23321;BME280;33376;51.306;4.752;2023-01-28T03:39:30;103233.44;;;3.44;nan
23321;BME280;33376;51.306;4.752;2023-01-28T03:41:56;103242.09;;;3.37;nan
23321;BME280;33376;51.306;4.752;2023-01-28T03:44:22;103243.03;;;3.43;nan
23321;BME280;33376;51.306;4.752;2023-01-28T03:47:06;103249.91;;;3.34;nan
23321;BME280;33376;51.306;4.752;2023-01-28T03:49:33;103252.53;;;3.35;nan
23321;BME280;33376;51.306;4.752;2023-01-28T03:51:58;103241.16;;;3.32;nan
23321;BME280;33376;51.306;4.752;2023-01-28T03:54:23;103249.88;;;3.32;nan
23321;BME280;33376;51.306;4.752;2023-01-28T03:56:48;103254.13;;;3.23;nan
23321;BME280;33376;51.306;4.752;2023-01-28T03:59:13;103262.03;;;3.27;nan
23321;BME280;33376;51.306;4.752;2023-01-28T04:01:39;103266.50;;;3.33;nan
23321;BME280;33376;51.306;4.752;2023-01-28T04:04:04;103266.28;;;3.18;nan
23321;BME280;33376;51.306;4.752;2023-01-28T04:06:29;103272.50;;;3.26;nan
23321;BME280;33376;51.306;4.752;2023-01-28T04:08:55;103276.72;;;3.15;nan
23321;BME280;33376;51.306;4.752;2023-01-28T04:11:23;103273.28;;;3.17;nan
23321;BME280;33376;51.306;4.752;2023-01-28T04:13:50;103274.09;;;3.15;nan
23321;BME280;33376;51.306;4.752;2023-01-28T04:16:15;103275.97;;;3.22;nan
23321;BME280;33376;51.306;4.752;2023-01-28T04:18:42;103272.38;;;3.15;nan
23321;BME280;33376;51.306;4.752;2023-01-28T04:21:07;103276.66;;;3.10;nan
23321;BME280;33376;51.306;4.752;2023-01-28T04:23:33;103293.44;;;3.23;nan
23321;BME280;33376;51.306;4.752;2023-01-28T04:25:58;103279.34;;;3.15;nan
23321;BME280;33376;51.306;4.752;2023-01-28T04:28:23;103282.00;;;3.18;nan
23321;BME280;33376;51.306;4.752;2023-01-28T04:30:49;103284.56;;;3.13;nan
23321;BME280;33376;51.306;4.752;2023-01-28T04:33:15;103284.59;;;3.15;nan
23321;BME280;33376;51.306;4.752;2023-01-28T04:35:41;103299.41;;;3.11;nan
23321;BME280;33376;51.306;4.752;2023-01-28T04:38:14;103292.44;;;3.13;nan
23321;BME280;33376;51.306;4.752;2023-01-28T04:40:47;103289.84;;;3.15;nan
23321;BME280;33376;51.306;4.752;2023-01-28T04:43:17;103301.91;;;3.03;nan
23321;BME280;33376;51.306;4.752;2023-01-28T04:45:43;103291.44;;;3.05;nan
23321;BME280;33376;51.306;4.752;2023-01-28T04:48:09;103296.53;;;2.94;nan
23321;BME280;33376;51.306;4.752;2023-01-28T04:50:34;103298.28;;;2.95;nan
23321;BME280;33376;51.306;4.752;2023-01-28T04:53:00;103301.75;;;2.93;nan
23321;BME280;33376;51.306;4.752;2023-01-28T04:55:27;103302.75;;;3.03;nan
23321;BME280;33376;51.306;4.752;2023-01-28T04:57:52;103304.56;;;3.07;nan
23321;BME280;33376;51.306;4.752;2023-01-28T05:00:17;103311.53;;;3.05;nan
23321;BME280;33376;51.306;4.752;2023-01-28T05:02:42;103298.41;;;3.03;nan
23321;BME280;33376;51.306;4.752;2023-01-28T05:05:08;103307.13;;;3.02;nan
23321;BME280;33376;51.306;4.752;2023-01-28T05:07:33;103310.66;;;3.06;nan
23321;BME280;33376;51.306;4.752;2023-01-28T05:09:59;103308.97;;;3.08;nan
23321;BME280;33376;51.306;4.752;2023-01-28T05:12:24;103311.59;;;3.08;nan
23321;BME280;33376;51.306;4.752;2023-01-28T05:14:49;103317.63;;;3.03;nan
23321;BME280;33376;51.306;4.752;2023-01-28T05:17:17;103312.41;;;3.05;nan
23321;BME280;33376;51.306;4.752;2023-01-28T05:19:43;103313.22;;;3.01;nan
23321;BME280;33376;51.306;4.752;2023-01-28T05:22:10;103318.31;;;2.92;nan
23321;BME280;33376;51.306;4.752;2023-01-28T05:24:35;103308.78;;;2.97;nan
23321;BME280;33376;51.306;4.752;2023-01-28T05:27:00;103307.13;;;3.02;nan
23321;BME280;33376;51.306;4.752;2023-01-28T05:29:26;103318.38;;;2.95;nan
23321;BME280;33376;51.306;4.752;2023-01-28T05:31:51;103320.91;;;2.92;nan
23321;BME280;33376;51.306;4.752;2023-01-28T05:34:16;103323.44;;;2.84;nan
23321;BME280;33376;51.306;4.752;2023-01-28T05:36:41;103315.78;;;2.96;nan
23321;BME280;33376;51.306;4.752;2023-01-28T05:39:07;103315.66;;;2.90;nan
23321;BME280;33376;51.306;4.752;2023-01-28T05:41:32;103317.22;;;2.79;nan
23321;BME280;33376;51.306;4.752;2023-01-28T05:43:58;103337.44;;;2.86;nan
23321;BME280;33376;51.306;4.752;2023-01-28T05:46:23;103333.88;;;2.83;nan
23321;BME280;33376;51.306;4.752;2023-01-28T05:48:49;103339.97;;;2.80;nan
23321;BME280;33376;51.306;4.752;2023-01-28T05:51:15;103334.81;;;2.85;nan
23321;BME280;33376;51.306;4.752;2023-01-28T05:53:40;103330.44;;;2.85;nan
23321;BME280;33376;51.306;4.752;2023-01-28T05:56:05;103333.00;;;2.82;nan
23321;BME280;33376;51.306;4.752;2023-01-28T05:58:31;103337.28;;;2.76;nan
23321;BME280;33376;51.306;4.752;2023-01-28T06:00:56;103344.34;;;2.81;nan
23321;BME280;33376;51.306;4.752;2023-01-28T06:03:21;103349.72;;;2.90;nan
23321;BME280;33376;51.306;4.752;2023-01-28T06:05:47;103352.22;;;2.83;nan
23321;BME280;33376;51.306;4.752;2023-01-28T06:08:12;103347.91;;;2.86;nan
23321;BME280;33376;51.306;4.752;2023-01-28T06:10:37;103340.97;;;2.88;nan
23321;BME280;33376;51.306;4.752;2023-01-28T06:13:02;103348.88;;;2.90;nan
23321;BME280;33376;51.306;4.752;2023-01-28T06:15:28;103344.59;;;2.96;nan
23321;BME280;33376;51.306;4.752;2023-01-28T06:17:53;103340.22;;;2.97;nan
23321;BME280;33376;51.306;4.752;2023-01-28T06:20:18;103344.44;;;2.87;nan
23321;BME280;33376;51.306;4.752;2023-01-28T06:22:43;103345.22;;;2.80;nan
23321;BME280;33376;51.306;4.752;2023-01-28T06:25:09;103341.72;;;2.81;nan
23321;BME280;33376;51.306;4.752;2023-01-28T06:27:34;103341.84;;;2.90;nan
23321;BME280;33376;51.306;4.752;2023-01-28T06:29:59;103338.44;;;2.94;nan
23321;BME280;33376;51.306;4.752;2023-01-28T06:32:25;103348.94;;;2.94;nan
23321;BME280;33376;51.306;4.752;2023-01-28T06:34:51;103347.31;;;3.03;nan
23321;BME280;33376;51.306;4.752;2023-01-28T06:37:16;103354.06;;;2.88;nan
23321;BME280;33376;51.306;4.752;2023-01-28T06:39:41;103347.97;;;2.89;nan
23321;BME280;33376;51.306;4.752;2023-01-28T06:42:07;103360.13;;;2.86;nan
23321;BME280;33376;51.306;4.752;2023-01-28T06:44:32;103354.81;;;2.81;nan
23321;BME280;33376;51.306;4.752;2023-01-28T06:46:57;103359.00;;;2.72;nan
23321;BME280;33376;51.306;4.752;2023-01-28T06:49:23;103355.47;;;2.70;nan
23321;BME280;33376;51.306;4.752;2023-01-28T06:51:48;103351.22;;;2.75;nan
23321;BME280;33376;51.306;4.752;2023-01-28T06:54:13;103352.03;;;2.71;nan
23321;BME280;33376;51.306;4.752;2023-01-28T06:56:39;103367.59;;;2.63;nan
23321;BME280;33376;51.306;4.752;2023-01-28T06:59:04;103367.56;;;2.62;nan
23321;BME280;33376;51.306;4.752;2023-01-28T07:01:29;103357.19;;;2.66;nan
23321;BME280;33376;51.306;4.752;2023-01-28T07:03:55;103371.09;;;2.64;nan
23321;BME280;33376;51.306;4.752;2023-01-28T07:06:20;103369.31;;;2.61;nan
23321;BME280;33376;51.306;4.752;2023-01-28T07:08:45;103377.19;;;2.63;nan
23321;BME280;33376;51.306;4.752;2023-01-28T07:11:11;103373.59;;;2.58;nan
23321;BME280;33376;51.306;4.752;2023-01-28T07:13:36;103372.81;;;2.63;nan
23321;BME280;33376;51.306;4.752;2023-01-28T07:16:01;103378.00;;;2.60;nan
23321;BME280;33376;51.306;4.752;2023-01-28T07:18:28;103382.41;;;2.61;nan
23321;BME280;33376;51.306;4.752;2023-01-28T07:20:53;103382.50;;;2.66;nan
23321;BME280;33376;51.306;4.752;2023-01-28T07:23:18;103394.66;;;2.64;nan
23321;BME280;33376;51.306;4.752;2023-01-28T07:25:43;103406.03;;;2.64;nan
23321;BME280;33376;51.306;4.752;2023-01-28T07:28:09;103402.47;;;2.61;nan
23321;BME280;33376;51.306;4.752;2023-01-28T07:30:35;103408.53;;;2.57;nan
23321;BME280;33376;51.306;4.752;2023-01-28T07:33:00;103408.63;;;2.63;nan
23321;BME280;33376;51.306;4.752;2023-01-28T07:35:25;103408.66;;;2.64;nan
23321;BME280;33376;51.306;4.752;2023-01-28T07:37:51;103412.34;;;2.75;nan
23321;BME280;33376;51.306;4.752;2023-01-28T07:40:17;103417.28;;;2.60;nan
23321;BME280;33376;51.306;4.752;2023-01-28T07:42:42;103410.38;;;2.64;nan
23321;BME280;33376;51.306;4.752;2023-01-28T07:45:07;103406.06;;;2.66;nan
23321;BME280;33376;51.306;4.752;2023-01-28T07:47:33;103405.03;;;2.58;nan
23321;BME280;33376;51.306;4.752;2023-01-28T07:49:58;103409.41;;;2.59;nan
23321;BME280;33376;51.306;4.752;2023-01-28T07:52:23;103407.44;;;2.47;nan
23321;BME280;33376;51.306;4.752;2023-01-28T07:54:48;103415.47;;;2.56;nan
23321;BME280;33376;51.306;4.752;2023-01-28T07:57:14;103421.63;;;2.57;nan
23321;BME280;33376;51.306;4.752;2023-01-28T07:59:39;103421.63;;;2.57;nan
23321;BME280;33376;51.306;4.752;2023-01-28T08:02:04;103418.03;;;2.53;nan
23321;BME280;33376;51.306;4.752;2023-01-28T08:04:30;103429.50;;;2.58;nan
23321;BME280;33376;51.306;4.752;2023-01-28T08:06:55;103422.38;;;2.51;nan
23321;BME280;33376;51.306;4.752;2023-01-28T08:09:21;103420.63;;;2.52;nan
23321;BME280;33376;51.306;4.752;2023-01-28T08:11:46;103428.56;;;2.56;nan
23321;BME280;33376;51.306;4.752;2023-01-28T08:14:11;103440.63;;;2.48;nan
23321;BME280;33376;51.306;4.752;2023-01-28T08:16:37;103442.47;;;2.54;nan
23321;BME280;33376;51.306;4.752;2023-01-28T08:19:02;103436.53;;;2.61;nan
23321;BME280;33376;51.306;4.752;2023-01-28T08:21:27;103439.97;;;2.58;nan
23321;BME280;33376;51.306;4.752;2023-01-28T08:23:53;103447.94;;;2.64;nan
23321;BME280;33376;51.306;4.752;2023-01-28T08:26:19;103450.53;;;2.63;nan
23321;BME280;33376;51.306;4.752;2023-01-28T08:28:44;103463.78;;;2.72;nan
23321;BME280;33376;51.306;4.752;2023-01-28T08:31:10;103463.72;;;2.67;nan
23321;BME280;33376;51.306;4.752;2023-01-28T08:33:35;103468.06;;;2.67;nan
23321;BME280;33376;51.306;4.752;2023-01-28T08:36:03;103487.47;;;2.78;nan
23321;BME280;33376;51.306;4.752;2023-01-28T08:38:29;103483.81;;;2.68;nan
23321;BME280;33376;51.306;4.752;2023-01-28T08:40:55;103482.03;;;2.66;nan
23321;BME280;33376;51.306;4.752;2023-01-28T08:43:20;103488.00;;;2.60;nan
23321;BME280;33376;51.306;4.752;2023-01-28T08:45:45;103494.19;;;2.64;nan
23321;BME280;33376;51.306;4.752;2023-01-28T08:48:12;103498.53;;;2.63;nan
23321;BME280;33376;51.306;4.752;2023-01-28T08:50:39;103484.78;;;2.73;nan
23321;BME280;33376;51.306;4.752;2023-01-28T08:53:05;103487.22;;;2.64;nan
23321;BME280;33376;51.306;4.752;2023-01-28T08:55:32;103510.91;;;2.70;nan
23321;BME280;33376;51.306;4.752;2023-01-28T08:57:57;103503.19;;;2.78;nan
23321;BME280;33376;51.306;4.752;2023-01-28T09:00:26;103507.59;;;2.77;nan
23321;BME280;33376;51.306;4.752;2023-01-28T09:02:51;103503.94;;;2.69;nan
23321;BME280;33376;51.306;4.752;2023-01-28T09:05:17;103494.22;;;2.65;nan
23321;BME280;33376;51.306;4.752;2023-01-28T09:07:42;103506.66;;;2.75;nan
23321;BME280;33376;51.306;4.752;2023-01-28T09:10:08;103504.22;;;2.84;nan
23321;BME280;33376;51.306;4.752;2023-01-28T09:12:33;103506.97;;;2.92;nan
23321;BME280;33376;51.306;4.752;2023-01-28T09:14:59;103517.53;;;2.95;nan
23321;BME280;33376;51.306;4.752;2023-01-28T09:17:25;103503.28;;;2.82;nan
23321;BME280;33376;51.306;4.752;2023-01-28T09:19:50;103511.47;;;2.97;nan
23321;BME280;33376;51.306;4.752;2023-01-28T09:22:15;103503.38;;;2.85;nan
23321;BME280;33376;51.306;4.752;2023-01-28T09:24:41;103503.66;;;3.02;nan
23321;BME280;33376;51.306;4.752;2023-01-28T09:27:06;103508.97;;;3.05;nan
23321;BME280;33376;51.306;4.752;2023-01-28T09:29:34;103521.91;;;2.96;nan
23321;BME280;33376;51.306;4.752;2023-01-28T09:32:00;103509.94;;;3.10;nan
23321;BME280;33376;51.306;4.752;2023-01-28T09:34:25;103526.53;;;3.09;nan
23321;BME280;33376;51.306;4.752;2023-01-28T09:36:50;103518.59;;;3.05;nan
23321;BME280;33376;51.306;4.752;2023-01-28T09:39:15;103524.63;;;3.02;nan
23321;BME280;33376;51.306;4.752;2023-01-28T09:46:43;103556.09;;;3.02;nan
23321;BME280;33376;51.306;4.752;2023-01-28T09:49:44;103545.47;;;2.94;nan
23321;BME280;33376;51.306;4.752;2023-01-28T09:52:01;103541.13;;;2.95;nan
23321;BME280;33376;51.306;4.752;2023-01-28T09:57:12;103547.38;;;3.02;nan
23321;BME280;33376;51.306;4.752;2023-01-28T09:59:38;103555.97;;;2.96;nan
23321;BME280;33376;51.306;4.752;2023-01-28T10:02:11;103555.88;;;2.90;nan
23321;BME280;33376;51.306;4.752;2023-01-28T10:04:53;103545.41;;;2.91;nan
23321;BME280;33376;51.306;4.752;2023-01-28T10:17:44;103566.16;;;3.26;nan
23321;BME280;33376;51.306;4.752;2023-01-28T10:22:52;103578.38;;;3.24;nan
23321;BME280;33376;51.306;4.752;2023-01-28T10:25:21;103567.75;;;3.18;nan
23321;BME280;33376;51.306;4.752;2023-01-28T10:27:47;103578.94;;;3.08;nan
23321;BME280;33376;51.306;4.752;2023-01-28T10:30:17;103572.72;;;3.03;nan
23321;BME280;33376;51.306;4.752;2023-01-28T10:33:05;103571.91;;;3.07;nan
23321;BME280;33376;51.306;4.752;2023-01-28T10:35:32;103588.84;;;3.22;nan
23321;BME280;33376;51.306;4.752;2023-01-28T10:38:00;103581.66;;;3.14;nan
23321;BME280;33376;51.306;4.752;2023-01-28T10:40:26;103588.56;;;3.09;nan
23321;BME280;33376;51.306;4.752;2023-01-28T10:42:52;103591.47;;;3.22;nan
23321;BME280;33376;51.306;4.752;2023-01-28T10:46:00;103579.59;;;2.97;nan
23321;BME280;33376;51.306;4.752;2023-01-28T10:48:07;103584.88;;;3.00;nan
23321;BME280;33376;51.306;4.752;2023-01-28T10:50:37;103580.19;;;2.84;nan
23321;BME280;33376;51.306;4.752;2023-01-28T10:53:13;103564.41;;;2.81;nan
23321;BME280;33376;51.306;4.752;2023-01-28T10:58:13;103558.78;;;3.07;nan
23321;BME280;33376;51.306;4.752;2023-01-28T11:00:41;103557.13;;;3.10;nan
23321;BME280;33376;51.306;4.752;2023-01-28T11:03:15;103567.03;;;3.26;nan
23321;BME280;33376;51.306;4.752;2023-01-28T11:05:48;103556.63;;;3.31;nan
23321;BME280;33376;51.306;4.752;2023-01-28T11:08:15;103554.00;;;3.31;nan
23321;BME280;33376;51.306;4.752;2023-01-28T11:10:41;103550.81;;;3.47;nan
23321;BME280;33376;51.306;4.752;2023-01-28T11:13:20;103556.59;;;3.28;nan
23321;BME280;33376;51.306;4.752;2023-01-28T11:15:46;103562.06;;;3.40;nan
23321;BME280;33376;51.306;4.752;2023-01-28T11:18:14;103554.69;;;3.19;nan
23321;BME280;33376;51.306;4.752;2023-01-28T11:20:41;103549.16;;;3.04;nan
23321;BME280;33376;51.306;4.752;2023-01-28T11:23:21;103556.63;;;3.29;nan
23321;BME280;33376;51.306;4.752;2023-01-28T11:25:47;103550.38;;;3.23;nan
23321;BME280;33376;51.306;4.752;2023-01-28T11:28:17;103536.72;;;2.94;nan
23321;BME280;33376;51.306;4.752;2023-01-28T11:30:44;103518.41;;;2.95;nan
23321;BME280;33376;51.306;4.752;2023-01-28T11:33:18;103533.75;;;3.21;nan
23321;BME280;33376;51.306;4.752;2023-01-28T11:35:52;103526.75;;;3.21;nan
23321;BME280;33376;51.306;4.752;2023-01-28T11:38:18;103516.78;;;3.02;nan
23321;BME280;33376;51.306;4.752;2023-01-28T11:40:50;103516.69;;;2.97;nan
23321;BME280;33376;51.306;4.752;2023-01-28T11:43:16;103513.16;;;2.95;nan
23321;BME280;33376;51.306;4.752;2023-01-28T11:45:50;103514.13;;;3.00;nan
23321;BME280;33376;51.306;4.752;2023-01-28T11:49:03;103505.53;;;3.08;nan
23321;BME280;33376;51.306;4.752;2023-01-28T11:53:41;103489.59;;;2.97;nan
23321;BME280;33376;51.306;4.752;2023-01-28T11:56:28;103488.63;;;2.92;nan
23321;BME280;33376;51.306;4.752;2023-01-28T11:59:07;103477.34;;;2.96;nan
23321;BME280;33376;51.306;4.752;2023-01-28T12:04:43;103454.13;;;3.14;nan
23321;BME280;33376;51.306;4.752;2023-01-28T12:12:32;103420.25;;;3.28;nan
23321;BME280;33376;51.306;4.752;2023-01-28T12:22:48;103409.84;;;3.34;nan
23321;BME280;33376;51.306;4.752;2023-01-28T12:25:37;103407.44;;;3.46;nan
23321;BME280;33376;51.306;4.752;2023-01-28T12:28:09;103395.00;;;3.33;nan
23321;BME280;33376;51.306;4.752;2023-01-28T12:38:20;103418.00;;;3.50;nan
23321;BME280;33376;51.306;4.752;2023-01-28T12:45:46;103440.69;;;3.48;nan
23321;BME280;33376;51.306;4.752;2023-01-28T12:48:33;103438.28;;;3.60;nan
23321;BME280;33376;51.306;4.752;2023-01-28T12:51:06;103445.31;;;3.64;nan
23321;BME280;33376;51.306;4.752;2023-01-28T12:56:17;103449.03;;;3.80;nan
23321;BME280;33376;51.306;4.752;2023-01-28T13:01:20;103463.88;;;3.76;nan
23321;BME280;33376;51.306;4.752;2023-01-28T13:03:51;103451.56;;;3.74;nan
23321;BME280;33376;51.306;4.752;2023-01-28T13:06:23;103445.53;;;3.78;nan
23321;BME280;33376;51.306;4.752;2023-01-28T13:08:50;103448.84;;;3.66;nan
23321;BME280;33376;51.306;4.752;2023-01-28T13:11:20;103454.13;;;3.68;nan
23321;BME280;33376;51.306;4.752;2023-01-28T13:13:45;103442.75;;;3.69;nan
23321;BME280;33376;51.306;4.752;2023-01-28T13:16:11;103455.97;;;3.75;nan
23321;BME280;33376;51.306;4.752;2023-01-28T13:24:35;103450.94;;;3.90;nan
23321;BME280;33376;51.306;4.752;2023-01-28T13:26:42;103448.53;;;4.05;nan
23321;BME280;33376;51.306;4.752;2023-01-28T13:31:40;103452.97;;;4.09;nan
23321;BME280;33376;51.306;4.752;2023-01-28T13:34:06;103429.56;;;4.25;nan
23321;BME280;33376;51.306;4.752;2023-01-28T13:39:04;103418.88;;;4.12;nan
23321;BME280;33376;51.306;4.752;2023-01-28T13:41:40;103412.66;;;4.05;nan
23321;BME280;33376;51.306;4.752;2023-01-28T13:46:50;103412.09;;;4.29;nan
23321;BME280;33376;51.306;4.752;2023-01-28T13:49:17;103403.13;;;4.12;nan
23321;BME280;33376;51.306;4.752;2023-01-28T13:54:43;103403.28;;;4.24;nan
23321;BME280;33376;51.306;4.752;2023-01-28T13:57:26;103406.69;;;4.17;nan
23321;BME280;33376;51.306;4.752;2023-01-28T14:18:00;103378.31;;;3.87;nan
23321;BME280;33376;51.306;4.752;2023-01-28T14:20:33;103369.72;;;3.99;nan
23321;BME280;33376;51.306;4.752;2023-01-28T14:23:05;103359.28;;;4.03;nan
23321;BME280;33376;51.306;4.752;2023-01-28T14:25:40;103370.59;;;4.01;nan
23321;BME280;33376;51.306;4.752;2023-01-28T14:28:11;103368.69;;;3.89;nan
23321;BME280;33376;51.306;4.752;2023-01-28T14:30:53;103382.56;;;3.78;nan
23321;BME280;33376;51.306;4.752;2023-01-28T14:33:20;103399.09;;;3.74;nan
23321;BME280;33376;51.306;4.752;2023-01-28T14:35:46;103416.03;;;3.95;nan
23321;BME280;33376;51.306;4.752;2023-01-28T14:38:13;103429.09;;;3.91;nan
23321;BME280;33376;51.306;4.752;2023-01-28T14:40:40;103427.56;;;4.06;nan
23321;BME280;33376;51.306;4.752;2023-01-28T14:43:07;103413.41;;;3.94;nan
23321;BME280;33376;51.306;4.752;2023-01-28T14:55:52;103455.66;;;3.55;nan
23321;BME280;33376;51.306;4.752;2023-01-28T14:58:21;103459.84;;;3.43;nan
23321;BME280;33376;51.306;4.752;2023-01-28T15:00:56;103460.69;;;3.42;nan
23321;BME280;33376;51.306;4.752;2023-01-28T15:03:22;103457.19;;;3.41;nan
23321;BME280;33376;51.306;4.752;2023-01-28T15:05:48;103461.63;;;3.45;nan
23321;BME280;33376;51.306;4.752;2023-01-28T15:08:19;103471.28;;;3.46;nan
23321;BME280;33376;51.306;4.752;2023-01-28T15:10:45;103461.69;;;3.50;nan
23321;BME280;33376;51.306;4.752;2023-01-28T15:13:14;103457.41;;;3.55;nan
23321;BME280;33376;51.306;4.752;2023-01-28T15:15:40;103440.81;;;3.56;nan
23321;BME280;33376;51.306;4.752;2023-01-28T15:18:17;103445.31;;;3.64;nan
23321;BME280;33376;51.306;4.752;2023-01-28T15:20:47;103442.47;;;3.49;nan
23321;BME280;33376;51.306;4.752;2023-01-28T15:23:14;103435.47;;;3.50;nan
23321;BME280;33376;51.306;4.752;2023-01-28T15:25:40;103450.09;;;3.36;nan
23321;BME280;33376;51.306;4.752;2023-01-28T15:28:08;103445.69;;;3.32;nan
23321;BME280;33376;51.306;4.752;2023-01-28T15:30:36;103458.69;;;3.27;nan
23321;BME280;33376;51.306;4.752;2023-01-28T15:33:13;103465.56;;;3.19;nan
23321;BME280;33376;51.306;4.752;2023-01-28T15:35:46;103471.44;;;3.06;nan
23321;BME280;33376;51.306;4.752;2023-01-28T15:38:11;103470.50;;;3.03;nan
23321;BME280;33376;51.306;4.752;2023-01-28T15:40:40;103502.63;;;2.92;nan